Time;durP1;ratioP1;P1;durP2;ratioP2;P2;SDS_P1;SDS_P2;PMS_P1;PMS_P2;Temp;Humidity;BMP_temperature;BMP_pressure;BME280_temperature;BME280_humidity;BME280_pressure;Samples;Min_cycle;Max_cycle;Signal;HPM_P1;HPM_P2
2023/03/07 00:33:35;;;;;;;0.00;0.00;;;3.90;99.90;;;;;;6258200;22;20024;-85
2023/03/07 02:58:05;;;;;;;0.00;0.00;;;;;;;;;;6243713;23;20020;-85
2023/03/07 03:00:31;;;;;;;0.05;0.05;;;4.30;99.90;;;;;;6216354;23;20500;-86
2023/03/07 03:02:57;;;;;;;0.10;0.10;;;;;;;;;;6218047;23;20007;-86
2023/03/07 03:05:23;;;;;;;0.10;0.10;;;4.40;99.90;;;;;;6216879;23;20004;-86
2023/03/07 03:07:48;;;;;;;0.00;0.00;;;4.40;99.90;;;;;;6243730;23;20000;-86
2023/03/07 03:15:25;;;;;;;0.10;0.10;;;;;;;;;;6258677;23;20024;-95
2023/03/07 03:17:53;;;;;;;0.00;0.00;;;4.50;99.90;;;;;;6247799;23;20021;-90
2023/03/07 03:20:19;;;;;;;0.10;0.10;;;;;;;;;;6247012;22;19997;-91
2023/03/07 03:43:29;;;;;;;0.10;0.10;;;;;;;;;;6262817;22;20008;-92
2023/03/07 03:45:56;;;;;;;0.10;0.10;;;4.60;99.90;;;;;;6249254;23;19988;-88
2023/03/07 03:48:25;;;;;;;0.00;0.00;;;;;;;;;;6249330;23;20007;-90
2023/03/07 03:51:03;;;;;;;0.10;0.10;;;4.60;99.90;;;;;;6249442;23;20303;-91
2023/03/07 03:53:31;;;;;;;0.05;0.05;;;4.70;99.90;;;;;;6249524;23;19989;-95
2023/03/07 03:56:10;;;;;;;0.10;0.10;;;4.70;99.90;;;;;;6249985;23;19988;-93
2023/03/07 03:58:37;;;;;;;0.05;0.05;;;;;;;;;;6274758;23;19995;-93
2023/03/07 06:59:46;;;;;;;0.00;0.00;;;;;;;;;;6243879;23;20354;-88
2023/03/07 07:02:14;;;;;;;0.10;0.10;;;4.00;99.90;;;;;;6216714;23;20007;-88
2023/03/07 07:04:40;;;;;;;0.10;0.10;;;;;;;;;;6218060;23;20008;-88
2023/03/07 07:07:06;;;;;;;0.10;0.10;;;;;;;;;;6217659;23;20165;-87
2023/03/07 07:09:32;;;;;;;0.00;0.00;;;4.10;99.90;;;;;;6217404;23;20106;-88
2023/03/07 07:11:58;;;;;;;0.10;0.10;;;3.90;99.90;;;;;;6217307;23;20024;-86
2023/03/07 07:14:24;;;;;;;0.10;0.10;;;3.90;99.90;;;;;;6216533;23;20054;-87
2023/03/07 07:16:52;;;;;;;0.10;0.10;;;3.70;99.90;;;;;;6218246;23;20008;-86
2023/03/07 07:19:18;;;;;;;0.00;0.00;;;;;;;;;;6219393;23;20423;-87
2023/03/07 07:21:43;;;;;;;0.00;0.00;;;3.70;99.90;;;;;;6219508;23;20039;-86
2023/03/07 07:24:21;;;;;;;0.10;0.10;;;3.60;99.90;;;;;;6219510;23;20004;-91
2023/03/07 07:26:47;;;;;;;0.00;0.00;;;;;;;;;;6219050;23;20000;-89
2023/03/07 07:29:13;;;;;;;0.08;0.08;;;3.70;99.90;;;;;;6219583;23;20004;-88
2023/03/07 07:31:39;;;;;;;0.10;0.10;;;;;;;;;;6219009;23;20004;-88
2023/03/07 07:34:04;;;;;;;0.10;0.10;;;3.60;99.90;;;;;;6219490;23;20415;-88
2023/03/07 07:36:30;;;;;;;0.10;0.10;;;3.80;99.90;;;;;;6219463;23;20338;-88
2023/03/07 07:38:56;;;;;;;0.10;0.10;;;3.70;99.90;;;;;;6216936;23;20355;-88
2023/03/07 07:41:21;;;;;;;0.10;0.10;;;4.30;99.90;;;;;;6216596;23;20011;-89
2023/03/07 07:43:49;;;;;;;0.10;0.10;;;;;;;;;;6245686;23;20419;-88
2023/03/07 07:46:15;;;;;;;0.10;0.10;;;;;;;;;;6219607;23;20027;-89
2023/03/07 07:48:41;;;;;;;0.10;0.10;;;;;;;;;;6220631;23;20058;-89
2023/03/07 07:51:07;;;;;;;0.10;0.10;;;3.30;99.90;;;;;;6220200;23;20011;-89
2023/03/07 07:53:32;;;;;;;0.10;0.10;;;4.30;99.90;;;;;;6217390;23;20079;-88
2023/03/07 07:55:58;;;;;;;0.10;0.10;;;3.30;99.90;;;;;;6218773;23;20031;-88
2023/03/07 07:58:24;;;;;;;0.10;0.10;;;3.40;99.90;;;;;;6219802;23;20012;-88
2023/03/07 08:00:50;;;;;;;0.10;0.10;;;3.40;99.90;;;;;;6221986;23;20004;-89
2023/03/07 08:03:15;;;;;;;0.05;0.05;;;3.30;99.90;;;;;;6223678;23;20027;-89
2023/03/07 08:05:53;;;;;;;0.10;0.10;;;3.20;99.90;;;;;;6223955;23;20015;-91
2023/03/07 08:08:19;;;;;;;0.05;0.05;;;;;;;;;;6222448;23;20098;-90
2023/03/07 08:10:46;;;;;;;0.10;0.10;;;3.10;99.90;;;;;;6221987;23;20026;-87
2023/03/07 08:13:16;;;;;;;0.10;0.10;;;3.00;99.90;;;;;;6220484;23;20041;-87
2023/03/07 08:15:42;;;;;;;0.10;0.10;;;3.10;99.90;;;;;;6221296;23;20141;-86
2023/03/07 08:18:09;;;;;;;0.03;0.03;;;3.30;99.90;;;;;;6220632;23;20008;-87
2023/03/07 08:20:36;;;;;;;0.10;0.10;;;3.10;99.90;;;;;;6221157;23;20008;-89
2023/03/07 08:23:02;;;;;;;0.10;0.10;;;;;;;;;;6220019;23;20575;-87
2023/03/07 08:25:28;;;;;;;0.10;0.10;;;3.10;99.90;;;;;;6219786;23;20084;-87
2023/03/07 08:27:54;;;;;;;0.10;0.10;;;3.20;99.90;;;;;;6219459;23;20403;-88
2023/03/07 08:30:21;;;;;;;0.05;0.05;;;3.30;99.90;;;;;;6220477;23;20004;-89
2023/03/07 08:32:52;;;;;;;0.10;0.10;;;3.20;99.90;;;;;;6220666;23;20003;-87
2023/03/07 08:35:18;;;;;;;0.10;0.10;;;3.50;99.90;;;;;;6220021;23;20348;-88
2023/03/07 08:37:44;;;;;;;0.10;0.10;;;3.30;99.90;;;;;;6220808;23;20008;-87
2023/03/07 08:40:10;;;;;;;0.10;0.10;;;3.20;99.90;;;;;;6219473;23;20008;-87
2023/03/07 08:42:36;;;;;;;0.10;0.10;;;3.20;99.90;;;;;;6216875;23;20011;-87
2023/03/07 08:45:01;;;;;;;0.10;0.10;;;3.30;99.90;;;;;;6217927;23;20029;-88
2023/03/07 08:47:27;;;;;;;0.00;0.00;;;3.40;99.90;;;;;;6220077;23;20323;-89
2023/03/07 08:49:52;;;;;;;0.10;0.10;;;3.40;99.90;;;;;;6220489;23;20050;-88
2023/03/07 08:52:18;;;;;;;0.10;0.10;;;3.30;99.90;;;;;;6218720;23;20000;-88
2023/03/07 08:54:43;;;;;;;0.00;0.00;;;3.30;99.90;;;;;;6220013;23;19996;-88
2023/03/07 08:57:09;;;;;;;0.10;0.10;;;3.40;99.90;;;;;;6220407;23;20308;-87
2023/03/07 08:59:35;;;;;;;0.10;0.10;;;3.30;99.90;;;;;;6219580;23;20016;-88
2023/03/07 09:02:00;;;;;;;0.10;0.10;;;3.30;99.90;;;;;;6220853;23;20038;-88
2023/03/07 09:04:26;;;;;;;0.03;0.03;;;3.30;99.90;;;;;;6221225;23;20023;-87
2023/03/07 09:06:51;;;;;;;0.10;0.10;;;3.40;99.90;;;;;;6221020;23;20096;-88
2023/03/07 09:09:17;;;;;;;0.10;0.10;;;3.40;99.90;;;;;;6220827;23;20000;-89
2023/03/07 09:11:42;;;;;;;0.10;0.10;;;3.50;99.90;;;;;;6220765;23;20000;-87
2023/03/07 09:14:08;;;;;;;0.00;0.00;;;3.60;99.90;;;;;;6220883;23;20011;-87
2023/03/07 09:16:33;;;;;;;0.10;0.10;;;3.60;99.90;;;;;;6220622;23;20004;-88
2023/03/07 09:18:59;;;;;;;0.10;0.10;;;3.60;99.90;;;;;;6219702;23;20036;-88
2023/03/07 09:21:25;;;;;;;0.10;0.10;;;;;;;;;;6220319;23;20095;-88
2023/03/07 09:23:51;;;;;;;0.00;0.00;;;;;;;;;;6219855;23;20431;-87
2023/03/07 09:26:16;;;;;;;0.10;0.10;;;3.60;99.90;;;;;;6220474;23;20059;-88
2023/03/07 09:28:42;;;;;;;0.10;0.10;;;3.60;99.90;;;;;;6220013;23;20004;-87
2023/03/07 09:31:11;;;;;;;0.00;0.00;;;3.50;99.90;;;;;;6220893;23;20272;-87
2023/03/07 09:33:37;;;;;;;0.05;0.05;;;3.50;99.90;;;;;;6220870;23;20102;-88
2023/03/07 09:36:05;;;;;;;0.10;0.10;;;3.60;99.90;;;;;;6220167;23;20403;-87
2023/03/07 09:38:30;;;;;;;0.10;0.10;;;;;;;;;;6247554;23;20003;-87
2023/03/07 09:41:06;;;;;;;0.10;0.10;;;3.60;99.90;;;;;;6220925;23;20004;-88
2023/03/07 09:43:46;;;;;;;0.10;0.10;;;3.60;99.90;;;;;;6219948;23;20004;-87
2023/03/07 09:46:46;;;;;;;0.10;0.10;;;3.60;99.90;;;;;;6220126;23;20034;-88
2023/03/07 09:49:47;;;;;;;0.10;0.10;;;3.60;99.90;;;;;;6218321;23;20000;-87
2023/03/07 09:52:22;;;;;;;0.00;0.00;;;3.60;99.90;;;;;;6220052;23;20382;-88
2023/03/07 09:54:59;;;;;;;0.10;0.10;;;3.60;99.90;;;;;;6218456;23;20004;-88
2023/03/07 09:57:38;;;;;;;0.10;0.10;;;3.70;99.90;;;;;;6218726;22;20008;-88
2023/03/07 10:00:28;;;;;;;0.10;0.10;;;3.70;99.90;;;;;;6219782;23;20454;-88
2023/03/07 10:03:21;;;;;;;0.10;0.10;;;3.70;99.90;;;;;;6220421;23;20000;-87
2023/03/07 10:05:50;;;;;;;0.08;0.08;;;3.70;99.90;;;;;;6219695;23;20388;-87
2023/03/07 10:08:19;;;;;;;0.10;0.10;;;3.70;99.90;;;;;;6194900;23;20062;-87
2023/03/07 10:11:12;;;;;;;0.03;0.03;;;3.60;99.90;;;;;;6220528;23;20012;-88
2023/03/07 10:14:01;;;;;;;0.05;0.05;;;3.60;99.90;;;;;;6219788;23;20329;-88
2023/03/07 10:16:49;;;;;;;0.00;0.00;;;3.60;99.90;;;;;;6220558;23;20004;-87
2023/03/07 10:19:29;;;;;;;0.00;0.00;;;3.60;99.90;;;;;;6219654;23;20570;-87
2023/03/07 10:22:12;;;;;;;0.00;0.00;;;3.60;99.90;;;;;;6218134;23;20000;-87
2023/03/07 10:25:03;;;;;;;0.10;0.10;;;3.50;99.90;;;;;;6217049;23;20015;-87
2023/03/07 10:27:29;;;;;;;0.10;0.10;;;3.60;99.90;;;;;;6215473;23;20014;-88
2023/03/07 10:29:58;;;;;;;0.10;0.10;;;3.60;99.90;;;;;;6189354;23;20015;-87
2023/03/07 10:32:44;;;;;;;0.00;0.00;;;3.60;99.90;;;;;;6213647;23;20004;-87
2023/03/07 10:35:09;;;;;;;0.10;0.10;;;3.50;99.90;;;;;;6214017;23;20050;-88
2023/03/07 10:37:51;;;;;;;0.10;0.10;;;3.60;99.90;;;;;;6212115;23;20490;-88
2023/03/07 10:40:27;;;;;;;0.05;0.05;;;3.60;99.90;;;;;;6215063;23;20011;-88
2023/03/07 10:42:54;;;;;;;0.10;0.10;;;3.70;99.90;;;;;;6214718;23;20094;-88
2023/03/07 10:45:20;;;;;;;0.10;0.10;;;3.80;99.90;;;;;;6216218;23;20061;-88
2023/03/07 10:47:45;;;;;;;0.00;0.00;;;3.80;99.90;;;;;;6213821;23;20042;-87
2023/03/07 10:50:28;;;;;;;0.10;0.10;;;3.70;99.90;;;;;;6214119;23;20032;-87
2023/03/07 10:52:56;;;;;;;0.10;0.10;;;3.70;99.90;;;;;;6214060;23;20370;-87
2023/03/07 10:55:35;;;;;;;0.10;0.10;;;3.60;99.90;;;;;;6213699;23;20338;-88
2023/03/07 10:58:23;;;;;;;0.10;0.10;;;4.80;99.90;;;;;;6215044;23;20012;-88
2023/03/07 11:01:13;;;;;;;0.10;0.10;;;3.60;99.90;;;;;;6213474;23;20015;-89
2023/03/07 11:03:50;;;;;;;0.03;0.03;;;3.70;99.90;;;;;;6215628;23;20018;-88
2023/03/07 11:06:49;;;;;;;0.10;0.10;;;3.80;99.90;;;;;;6212717;23;20000;-88
2023/03/07 11:09:25;;;;;;;0.10;0.10;;;3.80;99.90;;;;;;6243938;23;20000;-88
2023/03/07 11:12:09;;;;;;;0.00;0.00;;;3.80;99.90;;;;;;6216971;23;20382;-88
2023/03/07 11:14:50;;;;;;;0.10;0.10;;;3.80;99.90;;;;;;6218214;23;20007;-88
2023/03/07 11:17:48;;;;;;;0.00;0.00;;;3.90;99.90;;;;;;6219531;23;20488;-88
2023/03/07 11:20:25;;;;;;;0.10;0.10;;;4.00;99.90;;;;;;6136687;23;20004;-88
2023/03/07 11:23:22;;;;;;;0.10;0.10;;;4.10;99.90;;;;;;6216106;23;20008;-89
2023/03/07 11:25:48;;;;;;;0.10;0.10;;;4.20;99.90;;;;;;6215126;23;20008;-88
2023/03/07 11:28:25;;;;;;;0.10;0.10;;;4.30;99.90;;;;;;6215830;23;20334;-88
2023/03/07 11:30:55;;;;;;;0.10;0.10;;;4.30;99.90;;;;;;6217255;23;20046;-88
2023/03/07 11:33:37;;;;;;;0.10;0.10;;;4.40;99.90;;;;;;6214598;23;20011;-87
2023/03/07 11:36:26;;;;;;;0.10;0.10;;;4.50;99.90;;;;;;6214443;23;20057;-88
2023/03/07 11:39:20;;;;;;;0.10;0.10;;;4.50;99.90;;;;;;6217653;23;20298;-86
2023/03/07 11:41:50;;;;;;;0.10;0.10;;;4.60;99.90;;;;;;6217858;23;20080;-87
2023/03/07 11:44:39;;;;;;;0.08;0.08;;;4.70;99.90;;;;;;6216599;23;20366;-88
2023/03/07 11:47:07;;;;;;;0.10;0.10;;;4.70;99.90;;;;;;6218443;23;20005;-87
2023/03/07 11:49:41;;;;;;;0.10;0.10;;;4.70;99.90;;;;;;6218216;23;20004;-87
2023/03/07 11:52:40;;;;;;;0.10;0.10;;;4.80;99.90;;;;;;6218956;23;20504;-88
2023/03/07 11:55:30;;;;;;;0.10;0.10;;;4.80;99.90;;;;;;6218896;23;20004;-87
2023/03/07 11:58:08;;;;;;;0.10;0.10;;;4.90;99.90;;;;;;6216162;23;20023;-87
2023/03/07 12:01:07;;;;;;;0.00;0.00;;;5.00;99.90;;;;;;6215445;23;20004;-87
2023/03/07 12:03:51;;;;;;;0.00;0.00;;;5.00;99.90;;;;;;6214504;23;20479;-89
2023/03/07 12:06:50;;;;;;;0.10;0.10;;;5.20;99.90;;;;;;6215591;23;20010;-88
2023/03/07 12:09:47;;;;;;;0.10;0.10;;;5.30;99.90;;;;;;6216609;23;20004;-87
2023/03/07 12:12:25;;;;;;;0.10;0.10;;;5.40;99.90;;;;;;6215715;23;20015;-88
2023/03/07 12:15:21;;;;;;;0.10;0.10;;;5.40;99.90;;;;;;6216574;23;20046;-87
2023/03/07 12:18:23;;;;;;;0.10;0.10;;;5.60;99.90;;;;;;6217537;23;20008;-88
2023/03/07 12:21:27;;;;;;;0.10;0.10;;;5.60;99.90;;;;;;6217992;23;20047;-88
2023/03/07 12:24:05;;;;;;;0.10;0.10;;;5.70;99.90;;;;;;6216543;23;20030;-88
2023/03/07 12:26:49;;;;;;;0.10;0.10;;;5.80;99.90;;;;;;6217979;23;20011;-88
2023/03/07 12:29:36;;;;;;;0.10;0.10;;;6.00;99.90;;;;;;6216064;23;20031;-88
2023/03/07 12:32:16;;;;;;;0.03;0.03;;;6.10;99.90;;;;;;6214709;23;20466;-86
2023/03/07 12:34:50;;;;;;;0.10;0.10;;;6.10;99.90;;;;;;6217211;23;20015;-88
2023/03/07 12:37:24;;;;;;;0.08;0.08;;;6.20;99.90;;;;;;6213245;23;20008;-86
2023/03/07 12:40:02;;;;;;;0.10;0.10;;;6.20;99.90;;;;;;6213278;23;20012;-87
2023/03/07 12:42:49;;;;;;;0.10;0.10;;;6.50;99.90;;;;;;6212670;23;20008;-86
2023/03/07 12:45:29;;;;;;;0.10;0.10;;;6.20;99.90;;;;;;6214735;23;20011;-87
2023/03/07 12:48:06;;;;;;;0.10;0.10;;;6.20;99.90;;;;;;6215599;23;20004;-87
2023/03/07 12:50:40;;;;;;;0.10;0.10;;;6.20;99.90;;;;;;6215214;23;20004;-86
2023/03/07 13:19:34;;;;;;;0.10;0.10;;;5.80;99.90;;;;;;6215416;23;20016;-86
2023/03/07 13:22:20;;;;;;;0.10;0.10;;;5.70;99.90;;;;;;6212673;23;20487;-87
2023/03/07 13:24:47;;;;;;;0.08;0.08;;;5.70;99.90;;;;;;6211263;23;20004;-87
2023/03/07 13:27:25;;;;;;;0.00;0.00;;;5.60;99.90;;;;;;6195047;23;20008;-87
2023/03/07 13:30:09;;;;;;;0.10;0.10;;;5.70;99.90;;;;;;6185590;23;20001;-88
2023/03/07 13:32:50;;;;;;;0.10;0.10;;;5.70;99.90;;;;;;6185117;23;20350;-86
2023/03/07 13:35:27;;;;;;;0.10;0.10;;;5.90;99.90;;;;;;6185325;23;20063;-86
2023/03/07 13:38:14;;;;;;;0.10;0.10;;;6.10;99.90;;;;;;6184732;23;20088;-87
2023/03/07 13:40:46;;;;;;;0.10;0.10;;;6.10;99.90;;;;;;6184958;23;20008;-86
2023/03/07 13:43:17;;;;;;;0.10;0.10;;;6.10;99.90;;;;;;6184806;23;20450;-87
2023/03/07 13:45:49;;;;;;;0.10;0.10;;;6.30;99.90;;;;;;6184892;23;20100;-88
2023/03/07 13:48:27;;;;;;;0.10;0.10;;;6.20;99.90;;;;;;6185605;23;20005;-87
2023/03/07 13:50:55;;;;;;;0.10;0.10;;;6.20;99.90;;;;;;6184596;23;20001;-87
2023/03/07 13:53:30;;;;;;;0.10;0.10;;;6.20;99.90;;;;;;6185508;23;20001;-86
2023/03/07 13:56:14;;;;;;;0.10;0.10;;;6.20;99.90;;;;;;6184983;23;20028;-86
2023/03/07 13:58:59;;;;;;;0.10;0.10;;;6.20;99.90;;;;;;6184862;23;20005;-86
2023/03/07 14:01:43;;;;;;;0.10;0.10;;;6.30;99.90;;;;;;6185860;23;20001;-87
2023/03/07 14:04:29;;;;;;;0.10;0.10;;;6.30;99.90;;;;;;6186738;23;20012;-87
2023/03/07 14:07:30;;;;;;;0.10;0.10;;;6.30;99.90;;;;;;6184217;23;20062;-87
2023/03/07 14:10:05;;;;;;;0.10;0.10;;;6.40;99.90;;;;;;6183667;23;20438;-88
2023/03/07 14:13:08;;;;;;;0.10;0.10;;;6.50;99.90;;;;;;6182635;23;20373;-86
2023/03/07 14:15:46;;;;;;;0.10;0.10;;;6.50;99.90;;;;;;6185704;23;20025;-88
2023/03/07 14:18:39;;;;;;;0.10;0.10;;;6.50;99.90;;;;;;6183559;23;20434;-86
2023/03/07 14:21:32;;;;;;;0.10;0.10;;;6.40;99.90;;;;;;6182718;23;20008;-86
2023/03/07 14:24:24;;;;;;;0.10;0.10;;;6.50;99.90;;;;;;6184287;23;20001;-87
2023/03/07 14:26:55;;;;;;;0.10;0.10;;;6.00;99.90;;;;;;6181309;23;20001;-86
2023/03/07 14:29:23;;;;;;;0.10;0.10;;;6.00;99.90;;;;;;6182987;23;20007;-87
2023/03/07 14:31:52;;;;;;;0.10;0.10;;;5.70;99.90;;;;;;6182842;23;20008;-87
2023/03/07 14:34:45;;;;;;;0.00;0.00;;;5.20;99.90;;;;;;6158940;23;20009;-86
2023/03/07 14:37:15;;;;;;;0.10;0.10;;;4.60;99.90;;;;;;6184742;23;20500;-86
2023/03/07 14:39:52;;;;;;;0.10;0.10;;;4.00;99.90;;;;;;6183828;23;20009;-87
2023/03/07 14:42:35;;;;;;;0.10;0.10;;;3.60;99.90;;;;;;6183340;23;20028;-87
2023/03/07 14:45:15;;;;;;;0.00;0.00;;;3.30;99.90;;;;;;6184528;23;20008;-87
2023/03/07 14:47:49;;;;;;;0.10;0.10;;;3.00;99.90;;;;;;6183697;23;20004;-87
2023/03/07 14:50:18;;;;;;;0.10;0.10;;;3.10;99.90;;;;;;6183710;23;20084;-86
2023/03/07 14:52:45;;;;;;;0.10;0.10;;;3.00;99.90;;;;;;6185291;23;20006;-88
2023/03/07 14:55:20;;;;;;;0.10;0.10;;;3.00;99.90;;;;;;6184579;23;20029;-86
2023/03/07 14:57:51;;;;;;;0.10;0.10;;;2.70;99.90;;;;;;6183109;23;20009;-87
2023/03/07 15:00:23;;;;;;;0.10;0.10;;;2.40;99.90;;;;;;6183889;23;20009;-86
2023/03/07 15:03:06;;;;;;;0.10;0.10;;;2.20;99.90;;;;;;6183237;23;20178;-88
2023/03/07 15:05:36;;;;;;;0.10;0.10;;;2.10;99.90;;;;;;6180175;23;20012;-87
2023/03/07 15:08:02;;;;;;;0.10;0.10;;;2.00;99.90;;;;;;6181912;23;20001;-87
2023/03/07 15:10:51;;;;;;;0.10;0.10;;;2.00;99.90;;;;;;6182871;23;20103;-86
2023/03/07 15:13:31;;;;;;;0.10;0.10;;;2.10;99.90;;;;;;6181802;23;20434;-87
2023/03/07 15:16:02;;;;;;;0.10;0.10;;;2.60;99.90;;;;;;6183183;23;20043;-87
2023/03/07 15:18:43;;;;;;;0.10;0.10;;;2.70;99.90;;;;;;6182854;23;20012;-86
2023/03/07 15:21:18;;;;;;;0.10;0.10;;;2.90;99.90;;;;;;6182764;23;20009;-88
2023/03/07 15:24:02;;;;;;;0.10;0.10;;;3.00;99.90;;;;;;6157343;23;20016;-87
2023/03/07 15:26:28;;;;;;;0.10;0.10;;;3.10;99.90;;;;;;6181654;23;20478;-87
2023/03/07 15:28:59;;;;;;;0.10;0.10;;;3.10;99.90;;;;;;6182889;23;20001;-88
2023/03/07 15:31:27;;;;;;;0.10;0.10;;;3.20;99.90;;;;;;6182373;23;20029;-87
2023/03/07 15:33:52;;;;;;;0.10;0.10;;;3.30;99.90;;;;;;6185227;23;20005;-87
2023/03/07 15:36:23;;;;;;;0.10;0.10;;;3.40;99.90;;;;;;6181022;23;20221;-88
2023/03/07 15:38:50;;;;;;;0.10;0.10;;;3.50;99.90;;;;;;6185982;23;20044;-86
2023/03/07 15:41:41;;;;;;;0.00;0.00;;;3.50;99.90;;;;;;6183737;23;20032;-88
2023/03/07 15:44:09;;;;;;;0.10;0.10;;;3.50;99.90;;;;;;6184050;23;20116;-87
2023/03/07 15:47:03;;;;;;;0.00;0.00;;;3.50;99.90;;;;;;6153564;23;20017;-87
2023/03/07 15:49:48;;;;;;;0.10;0.10;;;3.40;99.90;;;;;;6153551;23;20009;-86
2023/03/07 15:52:31;;;;;;;0.10;0.10;;;3.20;99.90;;;;;;6155385;23;20005;-87
2023/03/07 15:54:58;;;;;;;0.10;0.10;;;3.20;99.90;;;;;;6155832;23;20017;-87
2023/03/07 15:57:47;;;;;;;0.10;0.10;;;3.20;99.90;;;;;;6154633;23;20009;-87
2023/03/07 16:00:20;;;;;;;0.10;0.10;;;3.10;99.90;;;;;;6160448;23;20012;-87
2023/03/07 16:02:47;;;;;;;0.10;0.10;;;3.10;99.90;;;;;;6154321;23;20013;-87
2023/03/07 16:05:19;;;;;;;0.10;0.10;;;3.00;99.90;;;;;;6153890;23;20152;-87
2023/03/07 16:07:45;;;;;;;0.10;0.10;;;3.00;99.90;;;;;;6154253;23;20002;-87
2023/03/07 16:10:11;;;;;;;0.03;0.03;;;3.10;99.90;;;;;;6153842;23;20312;-87
2023/03/07 16:12:49;;;;;;;0.00;0.00;;;3.00;99.90;;;;;;6152534;23;20016;-88
2023/03/07 16:15:21;;;;;;;0.10;0.10;;;3.00;99.90;;;;;;6153651;23;20013;-87
2023/03/07 16:17:51;;;;;;;0.10;0.10;;;3.00;99.90;;;;;;6152928;23;20013;-87
2023/03/07 16:20:27;;;;;;;0.08;0.08;;;3.00;99.90;;;;;;6151526;23;20010;-87
2023/03/07 16:22:58;;;;;;;0.10;0.10;;;2.90;99.90;;;;;;6154078;23;20006;-87
2023/03/07 16:25:28;;;;;;;0.00;0.00;;;2.90;99.90;;;;;;6153562;23;20067;-87
2023/03/07 16:27:56;;;;;;;0.08;0.08;;;3.00;99.90;;;;;;6153444;23;20339;-88
2023/03/07 16:30:25;;;;;;;0.10;0.10;;;2.90;99.90;;;;;;6154476;23;20450;-87
2023/03/07 16:32:51;;;;;;;0.08;0.08;;;2.80;99.90;;;;;;6153328;23;20023;-87
2023/03/07 16:35:25;;;;;;;0.10;0.10;;;2.90;99.90;;;;;;6153161;23;20092;-87
2023/03/07 16:37:51;;;;;;;0.10;0.10;;;;;;;;;;6152899;23;20037;-87
2023/03/07 16:40:18;;;;;;;0.10;0.10;;;2.70;99.90;;;;;;6153058;23;20041;-87
2023/03/07 16:42:46;;;;;;;0.10;0.10;;;2.70;99.90;;;;;;6152079;23;20012;-87
2023/03/07 16:45:26;;;;;;;0.10;0.10;;;2.60;99.90;;;;;;6152939;23;20097;-87
2023/03/07 16:47:53;;;;;;;;;;;2.50;99.90;;;;;;6154815;23;20021;-87
2023/03/07 16:50:21;;;;;;;0.10;0.10;;;2.40;99.90;;;;;;6151698;23;19979;-87
2023/03/07 16:52:47;;;;;;;0.10;0.10;;;2.40;99.90;;;;;;6152526;23;20439;-87
2023/03/07 16:55:14;;;;;;;0.10;0.10;;;2.20;99.90;;;;;;6152824;23;20016;-87
2023/03/07 16:57:42;;;;;;;0.10;0.10;;;2.20;99.90;;;;;;6153541;23;20077;-87
2023/03/07 17:00:13;;;;;;;0.10;0.10;;;2.30;99.90;;;;;;6152655;23;20325;-87
2023/03/07 17:02:39;;;;;;;0.10;0.10;;;2.20;99.90;;;;;;6152844;23;20009;-87
2023/03/07 17:05:05;;;;;;;0.05;0.05;;;2.20;99.90;;;;;;6152652;23;20009;-87
2023/03/07 17:07:30;;;;;;;0.10;0.10;;;2.30;99.90;;;;;;6151542;23;20002;-87
2023/03/07 17:09:57;;;;;;;0.10;0.10;;;2.40;99.90;;;;;;6152320;23;20014;-88
2023/03/07 17:12:23;;;;;;;0.10;0.10;;;2.40;99.90;;;;;;6151399;23;20038;-87
2023/03/07 17:14:49;;;;;;;0.10;0.10;;;2.40;99.90;;;;;;6152468;23;20140;-88
2023/03/07 17:17:26;;;;;;;0.10;0.10;;;2.50;99.90;;;;;;6151959;23;20045;-87
2023/03/07 17:19:51;;;;;;;0.10;0.10;;;2.50;99.90;;;;;;6152740;23;20411;-87
2023/03/07 17:22:17;;;;;;;0.10;0.10;;;2.50;99.90;;;;;;6151910;23;20009;-87
2023/03/07 17:24:42;;;;;;;0.10;0.10;;;2.60;99.90;;;;;;6154103;23;20002;-87
2023/03/07 17:27:08;;;;;;;0.10;0.10;;;2.60;99.90;;;;;;6153024;23;20335;-89
2023/03/07 17:29:46;;;;;;;0.10;0.10;;;2.60;99.90;;;;;;6159039;23;20012;-89
2023/03/07 17:32:11;;;;;;;0.10;0.10;;;2.60;99.90;;;;;;6158379;23;20350;-87
2023/03/07 17:34:37;;;;;;;0.10;0.10;;;2.60;99.90;;;;;;6152151;23;20033;-87
2023/03/07 17:37:04;;;;;;;0.10;0.10;;;2.80;99.90;;;;;;6127555;23;20096;-87
2023/03/07 17:39:31;;;;;;;0.00;0.00;;;2.60;99.90;;;;;;6152943;23;20009;-87
2023/03/07 17:41:57;;;;;;;0.10;0.10;;;2.50;99.90;;;;;;6153586;23;20404;-87
2023/03/07 17:44:23;;;;;;;0.10;0.10;;;2.50;99.90;;;;;;6153277;23;20010;-87
2023/03/07 17:46:50;;;;;;;0.00;0.00;;;2.50;99.90;;;;;;6153160;23;20009;-88
2023/03/07 17:49:16;;;;;;;0.00;0.00;;;2.60;99.90;;;;;;6152091;23;20012;-87
2023/03/07 17:51:41;;;;;;;0.10;0.10;;;2.60;99.90;;;;;;6153613;23;20343;-89
2023/03/07 17:54:07;;;;;;;0.10;0.10;;;2.60;99.90;;;;;;6153431;23;20010;-88
2023/03/07 17:56:34;;;;;;;0.10;0.10;;;2.70;99.90;;;;;;6152606;23;20013;-87
2023/03/07 17:59:00;;;;;;;0.10;0.10;;;2.60;99.90;;;;;;6153250;23;20114;-88
2023/03/07 18:01:30;;;;;;;0.10;0.10;;;2.60;99.90;;;;;;6153423;23;20081;-88
2023/03/07 18:03:56;;;;;;;0.10;0.10;;;2.60;99.90;;;;;;6153203;23;20104;-88
2023/03/07 18:06:23;;;;;;;0.00;0.00;;;2.70;99.90;;;;;;6153832;23;20012;-87
2023/03/07 18:08:48;;;;;;;0.10;0.10;;;2.60;99.90;;;;;;6154230;23;20002;-87
2023/03/07 18:11:14;;;;;;;0.10;0.10;;;2.60;99.90;;;;;;6154746;23;20010;-88
2023/03/07 18:13:41;;;;;;;0.05;0.05;;;;;;;;;;6154402;23;20013;-88
2023/03/07 18:16:07;;;;;;;0.10;0.10;;;2.60;99.90;;;;;;6153229;23;20002;-88
2023/03/07 18:18:36;;;;;;;0.10;0.10;;;2.60;99.90;;;;;;6152880;23;20017;-88
2023/03/07 18:21:08;;;;;;;0.10;0.10;;;2.60;99.90;;;;;;6152719;23;20010;-88
2023/03/07 18:23:34;;;;;;;0.00;0.00;;;2.70;99.90;;;;;;6152468;23;20032;-88
2023/03/07 18:26:15;;;;;;;0.10;0.10;;;2.60;99.90;;;;;;6153903;23;20112;-87
2023/03/07 18:28:43;;;;;;;0.10;0.10;;;2.60;99.90;;;;;;6154058;23;20431;-88
2023/03/07 18:31:17;;;;;;;0.05;0.05;;;2.60;99.90;;;;;;6156821;23;20313;-88
2023/03/07 18:33:43;;;;;;;0.10;0.10;;;2.60;99.90;;;;;;6155471;23;20002;-88
2023/03/07 18:36:14;;;;;;;0.10;0.10;;;2.60;99.90;;;;;;6154311;23;20056;-88
2023/03/07 18:38:40;;;;;;;0.05;0.05;;;2.50;99.90;;;;;;6153186;23;20008;-88
2023/03/07 18:41:12;;;;;;;0.10;0.10;;;2.50;99.90;;;;;;6153299;23;20001;-86
2023/03/07 18:43:38;;;;;;;0.10;0.10;;;2.40;99.90;;;;;;6153238;23;20010;-87
2023/03/07 18:46:06;;;;;;;0.10;0.10;;;2.40;99.90;;;;;;6153509;23;20005;-87
2023/03/07 18:48:31;;;;;;;0.10;0.10;;;2.50;99.90;;;;;;6153333;23;20423;-88
2023/03/07 18:51:02;;;;;;;0.10;0.10;;;2.50;99.90;;;;;;6152592;23;20085;-87
2023/03/07 18:53:29;;;;;;;0.10;0.10;;;2.40;99.90;;;;;;6152422;23;20431;-86
2023/03/07 18:55:54;;;;;;;0.00;0.00;;;2.40;99.90;;;;;;6152456;23;20010;-87
2023/03/07 18:58:21;;;;;;;0.10;0.10;;;2.40;99.90;;;;;;6152119;23;20474;-86
2023/03/07 19:00:47;;;;;;;0.00;0.00;;;2.50;99.90;;;;;;6150035;23;20016;-86
2023/03/07 19:03:13;;;;;;;0.10;0.10;;;2.60;99.90;;;;;;6150606;23;20017;-86
2023/03/07 19:05:47;;;;;;;0.00;0.00;;;2.60;99.90;;;;;;6151996;23;20479;-86
2023/03/07 19:08:13;;;;;;;0.10;0.10;;;2.60;99.90;;;;;;6149662;23;20089;-87
2023/03/07 19:10:38;;;;;;;0.10;0.10;;;2.60;99.90;;;;;;6150937;23;20380;-86
2023/03/07 19:13:05;;;;;;;0.05;0.05;;;2.70;99.90;;;;;;6152609;23;20005;-86
2023/03/07 19:15:30;;;;;;;0.10;0.10;;;2.70;99.90;;;;;;6154735;23;20334;-86
2023/03/07 19:17:56;;;;;;;0.10;0.10;;;2.60;99.90;;;;;;6154315;23;20013;-87
2023/03/07 19:20:22;;;;;;;0.00;0.00;;;2.70;99.90;;;;;;6154248;23;20016;-86
2023/03/07 19:22:47;;;;;;;0.10;0.10;;;2.60;99.90;;;;;;6154934;23;20144;-86
2023/03/07 19:25:13;;;;;;;0.10;0.10;;;2.70;99.90;;;;;;6156419;23;20076;-87
2023/03/07 19:27:38;;;;;;;0.10;0.10;;;2.70;99.90;;;;;;6154824;23;20001;-86
2023/03/07 19:30:05;;;;;;;0.00;0.00;;;2.60;99.90;;;;;;6156087;23;20006;-86
2023/03/07 19:32:30;;;;;;;0.08;0.08;;;2.60;99.90;;;;;;6157160;23;19998;-88
2023/03/07 19:34:56;;;;;;;0.10;0.10;;;;;;;;;;6155913;23;20008;-88
2023/03/07 19:37:22;;;;;;;0.10;0.10;;;2.60;99.90;;;;;;6154906;23;20153;-88
2023/03/07 19:39:52;;;;;;;0.10;0.10;;;2.60;99.90;;;;;;6155471;23;20005;-88
2023/03/07 19:42:18;;;;;;;0.10;0.10;;;2.60;99.90;;;;;;6154426;23;20076;-88
2023/03/07 19:44:43;;;;;;;0.10;0.10;;;2.60;99.90;;;;;;6154553;23;20015;-88
2023/03/07 19:47:09;;;;;;;0.10;0.10;;;2.60;99.90;;;;;;6155355;23;20076;-88
2023/03/07 19:49:34;;;;;;;0.10;0.10;;;2.70;99.90;;;;;;6154951;23;20345;-88
2023/03/07 19:52:00;;;;;;;0.00;0.00;;;2.70;99.90;;;;;;6156239;23;20445;-88
2023/03/07 19:54:25;;;;;;;0.10;0.10;;;2.70;99.90;;;;;;6154279;23;19998;-88
2023/03/07 19:56:51;;;;;;;0.10;0.10;;;2.60;99.90;;;;;;6153153;23;20005;-88
2023/03/07 19:59:17;;;;;;;0.10;0.10;;;2.60;99.90;;;;;;6152040;23;20351;-89
2023/03/07 20:01:43;;;;;;;0.10;0.10;;;2.60;99.90;;;;;;6154355;23;20012;-89
2023/03/07 20:04:11;;;;;;;0.10;0.10;;;2.60;99.90;;;;;;6154351;23;20062;-88
2023/03/07 20:06:38;;;;;;;0.10;0.10;;;2.60;99.90;;;;;;6153816;23;20033;-88
2023/03/07 20:09:04;;;;;;;0.10;0.10;;;2.50;99.90;;;;;;6153920;23;20001;-88
2023/03/07 20:11:32;;;;;;;0.00;0.00;;;2.50;99.90;;;;;;6152656;23;20002;-89
2023/03/07 20:14:00;;;;;;;0.05;0.05;;;2.50;99.90;;;;;;6154339;23;20033;-88
2023/03/07 20:16:28;;;;;;;0.05;0.05;;;2.60;99.90;;;;;;6154208;23;20343;-88
2023/03/07 20:18:54;;;;;;;0.10;0.10;;;2.50;99.90;;;;;;6153672;23;20024;-87